Data for 09/05/2018

Time Sea-Level Adjusted Pressure Absolute Pressure Temperature Relative Humidity Dew Point   
(mb) (inHg) (mb) (inHg) (C) (F) (%) (C) (F)
00:05 1024 30.24 853 25.19 11.4 52.6 47 0.5 33
00:10 1024 30.24 853 25.19 11.4 52.5 47 0.6 33
00:15 1024 30.24 853 25.19 11.3 52.3 47 0.5 32.9
00:20 1024 30.24 853 25.19 11.3 52.3 47 0.5 32.9
00:25 1024 30.24 853 25.19 11.2 52.1 48 0.6 33.1
00:30 1024 30.24 853 25.19 11 51.8 48 0.5 33
00:35 1024 30.24 853 25.19 10.9 51.7 49 0.6 33.1
00:40 1024 30.24 853 25.19 10.8 51.5 49 0.5 32.9
00:45 1024 30.24 853 25.19 10.8 51.4 49 0.6 33
00:50 1024 30.24 853 25.19 10.7 51.2 50 0.6 33
00:55 1024 30.24 853 25.19 10.6 51 50 0.5 33
01:00 1024 30.24 853 25.19 10.6 51 50 0.5 32.9
01:05 1024 30.24 853 25.19 10.6 51 49 0.5 32.8
01:10 1024 30.24 853 25.19 10.5 50.9 50 0.5 32.9
01:15 1024 30.24 853 25.19 10.4 50.7 50 0.6 33
01:20 1024 30.24 853 25.19 10.3 50.6 50 0.4 32.8
01:25 1024 30.24 853 25.19 10.4 50.6 50 0.5 33
01:30 1024 30.24 853 25.19 10.3 50.5 51 0.5 33
01:35 1024 30.24 853 25.19 10.2 50.4 51 0.4 32.8
01:40 1024 30.24 853 25.19 10.2 50.4 50 0.4 32.8
01:45 1024 30.24 853 25.19 10.2 50.3 51 0.4 32.8
01:50 1024 30.24 853 25.19 10.2 50.3 51 0.5 32.9
01:55 1024 30.24 853 25.19 10 50 51 0.5 32.8
02:00 1024 30.24 853 25.19 10 50 51 0.5 32.8
02:05 1024 30.24 853 25.19 9.9 49.8 52 0.5 33
02:10 1024 30.24 853 25.19 9.8 49.6 52 0.5 33
02:15 1024 30.24 853 25.19 9.6 49.3 53 0.4 32.8
02:20 1024 30.24 853 25.19 9.5 49.2 53 0.5 32.9
02:25 1024 30.24 854 25.22 9.4 49 53 0.4 32.7
02:30 1024 30.24 853 25.19 9.4 49 53 0.4 32.7
02:35 1024 30.24 853 25.19 9.4 48.9 53 0.4 32.7
02:40 1024 30.24 853 25.19 9.3 48.8 53 0.3 32.6
02:45 1024 30.24 853 25.19 9.3 48.8 53 0.2 32.4
02:50 1024 30.24 854 25.22 9.4 48.8 53 0.3 32.5
02:55 1024 30.24 854 25.22 9.3 48.8 53 0.2 32.4
03:00 1024 30.24 853 25.19 9.3 48.8 53 0.3 32.5
03:05 1024 30.24 853 25.19 9.3 48.7 53 0.2 32.4
03:10 1024 30.24 853 25.19 9.2 48.6 54 0.3 32.5
03:15 1024 30.24 854 25.22 9.1 48.4 54 0.3 32.6
03:20 1024 30.24 853 25.19 9.1 48.3 54 0.3 32.5
03:25 1024 30.24 853 25.19 9 48.2 54 0.2 32.4
03:30 1024 30.24 853 25.19 9 48.1 54 0.2 32.4
03:35 1024 30.24 853 25.19 8.9 48 54 0.2 32.4
03:40 1024 30.24 854 25.22 8.8 47.9 55 0.2 32.4
03:45 1024 30.24 853 25.19 8.8 47.8 55 0.2 32.4
03:50 1024 30.24 853 25.19 8.7 47.7 55 0.1 32.3
03:55 1024 30.24 853 25.19 8.7 47.7 55 0.2 32.4
04:00 1024 30.24 853 25.19 8.7 47.6 55 0.3 32.5
04:05 1024 30.24 853 25.19 8.6 47.5 55 0.1 32.2
04:10 1024 30.24 853 25.19 8.6 47.5 55 0.2 32.3
04:15 1024 30.24 853 25.19 8.6 47.5 55 0.2 32.4
04:20 1024 30.24 853 25.19 8.6 47.5 55 0.2 32.3
04:25 1024 30.24 853 25.19 8.6 47.5 55 0.1 32.2
04:30 1024 30.24 853 25.19 8.6 47.5 55 0.2 32.4
04:35 1024 30.24 853 25.19 8.5 47.3 55 0.1 32.2
04:40 1024 30.24 853 25.19 8.6 47.4 55 0.1 32.2
04:45 1024 30.24 853 25.19 8.5 47.3 55 0.1 32.2
04:50 1024 30.24 853 25.19 8.4 47.2 56 0.2 32.3
04:55 1024 30.24 853 25.19 8.4 47 56 0.2 32.3
05:00 1024 30.24 853 25.19 8.3 46.9 56 0.1 32.3
05:05 1024 30.24 853 25.19 8.2 46.7 57 0.2 32.3
05:10 1024 30.24 853 25.19 8.1 46.5 57 0.1 32.2
05:15 1024 30.24 853 25.19 8 46.5 57 0 32
05:20 1024 30.24 853 25.19 8 46.4 57 0.1 32.1
05:25 1024 30.24 853 25.19 8 46.3 57 0 32
05:30 1024 30.24 853 25.19 8 46.3 57 0 32.1
05:35 1024 30.24 853 25.19 8 46.4 57 -0 32
05:40 1024 30.24 854 25.22 8 46.3 57 -0 32
05:45 1024 30.24 854 25.22 7.9 46.3 57 0 32
05:50 1024 30.24 854 25.22 8 46.3 57 -0 32
05:55 1024 30.24 854 25.22 8 46.4 57 0.1 32.1
06:00 1024 30.24 854 25.22 8 46.4 57 0.1 32.1
06:05 1024 30.24 854 25.22 8 46.3 57 0.1 32.2
06:10 1025 30.27 854 25.22 7.9 46.2 58 0.1 32.2
06:15 1025 30.27 854 25.22 7.9 46.2 58 0.1 32.2
06:20 1025 30.27 854 25.22 8 46.4 57 0.1 32.2
06:25 1025 30.27 854 25.22 8.2 46.7 57 0.2 32.4
06:30 1025 30.27 854 25.22 8.3 46.9 57 0.2 32.4
06:35 1025 30.27 854 25.22 8.3 47 57 0.2 32.4
06:40 1025 30.27 854 25.22 8.4 47.1 56 0.2 32.3
06:45 1025 30.27 854 25.22 8.5 47.2 56 0.2 32.4
06:50 1025 30.27 854 25.22 8.5 47.3 56 0.2 32.4
06:55 1025 30.27 854 25.22 8.5 47.3 56 0.2 32.4
07:00 1025 30.27 854 25.22 8.6 47.4 55 0.2 32.3
07:05 1025 30.27 854 25.22 8.7 47.7 55 0.3 32.6
07:10 1025 30.27 854 25.22 8.9 48 55 0.4 32.7
07:15 1025 30.27 854 25.22 9.1 48.3 55 0.5 32.8
07:20 1025 30.27 854 25.22 9.3 48.8 54 0.6 33
07:25 1025 30.27 854 25.22 9.5 49.1 54 0.6 33.1
07:30 1025 30.27 854 25.22 9.7 49.5 53 0.6 33
07:35 1025 30.27 854 25.22 9.9 49.8 52 0.7 33.2
07:40 1025 30.27 854 25.22 10.3 50.5 52 0.7 33.3
07:45 1025 30.27 854 25.22 10.4 50.7 52 0.9 33.7
07:50 1025 30.27 854 25.22 10.5 51 51 0.9 33.6
07:55 1025 30.27 854 25.22 10.8 51.4 51 1 33.8
08:00 1025 30.27 854 25.22 11.3 52.3 50 1.2 34.2
08:05 1025 30.27 854 25.22 11.5 52.6 50 1.4 34.5
08:10 1025 30.27 854 25.22 11.9 53.3 49 1.5 34.7
08:15 1025 30.27 854 25.22 12 53.6 48 1.3 34.3
08:20 1025 30.27 854 25.22 12 53.7 48 1.5 34.6
08:25 1025 30.27 854 25.22 12.4 54.3 47 1.4 34.5
08:30 1025 30.27 854 25.22 12.6 54.7 47 1.7 35
08:35 1025 30.27 854 25.22 12.8 55.1 47 1.8 35.2
08:40 1025 30.27 854 25.22 13.1 55.5 46 1.9 35.4
08:45 1025 30.27 854 25.22 13.2 55.8 47 2.1 35.8
08:50 1025 30.27 854 25.22 13.2 55.7 46 2 35.6
08:55 1025 30.27 854 25.22 13.4 56.2 45 1.9 35.4
09:00 1025 30.27 854 25.22 13.7 56.6 43 1.5 34.7
09:05 1025 30.27 854 25.22 14 57.2 44 2 35.6
09:10 1025 30.27 854 25.22 13.8 56.8 44 1.8 35.2
09:15 1025 30.27 854 25.22 14.5 58.1 41 1.5 34.8
09:20 1025 30.27 854 25.22 14.8 58.6 42 2 35.6
09:25 1025 30.27 855 25.25 14.3 57.8 44 2.2 36
09:30 1025 30.27 855 25.25 13.6 56.5 45 1.9 35.4
09:35 1025 30.27 855 25.25 14 57.1 44 2 35.7
09:40 1025 30.27 855 25.25 14.3 57.8 44 2.3 36.1
09:45 1025 30.27 855 25.25 14.4 57.8 42 1.8 35.2
09:50 1025 30.27 854 25.22 15.1 59.3 40 1.9 35.4
09:55 1025 30.27 854 25.22 15.3 59.5 43 2.8 37
10:00 1025 30.27 854 25.22 14.7 58.4 42 2 35.6
10:05 1025 30.27 854 25.22 14.9 58.9 42 2.2 36
10:10 1025 30.27 854 25.22 15.2 59.3 41 2.1 35.9
10:15 1025 30.27 854 25.22 16.1 61 39 2.4 36.4
10:20 1025 30.27 854 25.22 15.4 59.8 39 1.6 34.9
10:25 1025 30.27 854 25.22 16.3 61.3 38 2.2 35.9
10:30 1025 30.27 854 25.22 16.8 62.3 37 2.3 36.2
10:35 1025 30.27 854 25.22 17.4 63.4 35 1.9 35.5
10:40 1025 30.27 854 25.22 17.6 63.7 35 2.2 36
10:45 1025 30.27 854 25.22 17.9 64.1 35 2.3 36.1
10:50 1025 30.27 854 25.22 17.5 63.4 36 2.4 36.4
10:55 1025 30.27 854 25.22 16.9 62.5 38 2.6 36.6
11:00 1025 30.27 854 25.22 16 60.8 41 2.9 37.1
11:05 1025 30.27 854 25.22 16.3 61.4 37 1.9 35.4
11:10 1025 30.27 854 25.22 17.9 64.2 35 2.1 35.9
11:15 1025 30.27 854 25.22 18.9 65.9 33 2.5 36.5
11:20 1025 30.27 854 25.22 18.7 65.7 33 2.1 35.8
11:25 1025 30.27 854 25.22 18.8 65.8 32 2 35.7
11:30 1025 30.27 854 25.22 18.6 65.5 33 2.2 36
11:35 1025 30.27 854 25.22 18.3 64.9 34 2.2 35.9
11:40 1025 30.27 854 25.22 19.1 66.4 32 2.3 36.1
11:45 1025 30.27 854 25.22 18.6 65.5 34 2.5 36.6
11:50 1025 30.27 854 25.22 18.9 66 33 2.6 36.6
11:55 1025 30.27 854 25.22 19.4 67 33 2.7 36.9
12:00 1025 30.27 854 25.22 20 68 31 2.7 36.8
12:05 1024 30.24 854 25.22 20.9 69.6 30 2.8 37
12:10 1024 30.24 854 25.22 20.7 69.2 31 2.9 37.2
12:15 1024 30.24 854 25.22 20.7 69.2 29 2.4 36.4
12:20 1024 30.24 853 25.19 20.7 69.3 30 2.9 37.2
12:25 1024 30.24 853 25.19 19.9 67.8 31 2.3 36.1
12:30 1024 30.24 853 25.19 20.8 69.4 30 2.6 36.6
12:35 1024 30.24 853 25.19 20.8 69.5 29 2.2 35.9
12:40 1024 30.24 853 25.19 20.7 69.2 29 2.1 35.8
12:45 1024 30.24 853 25.19 21.2 70.1 29 2.6 36.8
12:50 1024 30.24 853 25.19 21.6 70.9 29 3.1 37.6
12:55 1024 30.24 853 25.19 22.1 71.8 29 3.3 37.9
13:00 1024 30.24 853 25.19 22.1 71.7 28 2.9 37.2
13:05 1024 30.24 853 25.19 21.5 70.7 29 3 37.5
13:10 1024 30.24 853 25.19 21.9 71.3 29 3.2 37.8
13:15 1024 30.24 853 25.19 22.1 71.7 29 3.6 38.4
13:20 1024 30.24 853 25.19 21.2 70.2 29 2.8 37
13:25 1024 30.24 853 25.19 21.1 70 30 2.9 37.3
13:30 1024 30.24 853 25.19 22 71.5 29 3.2 37.7
13:35 1024 30.24 853 25.19 22.2 72 29 3.6 38.5
13:40 1024 30.24 853 25.19 21.9 71.3 29 3.3 38
13:45 1024 30.24 853 25.19 22.7 72.9 27 3.1 37.5
13:50 1023 30.21 853 25.19 22.8 73.1 28 3.6 38.4
13:55 1023 30.21 853 25.19 22.8 73 28 3.6 38.5
14:00 1023 30.21 853 25.19 22.1 71.7 28 3.1 37.6
14:05 1023 30.21 853 25.19 23.1 73.6 27 3.1 37.6
14:10 1023 30.21 853 25.19 23.7 74.7 27 3.8 38.8
14:15 1023 30.21 853 25.19 23.1 73.5 26 3 37.3
14:20 1023 30.21 853 25.19 23.9 74.9 26 3.3 37.9
14:25 1023 30.21 852 25.16 23.7 74.6 25 2.7 36.9
14:30 1023 30.21 852 25.16 24.3 75.7 25 3.5 38.3
14:35 1023 30.21 852 25.16 23.6 74.4 26 3.1 37.5
14:40 1023 30.21 852 25.16 23.8 74.8 26 3.2 37.7
14:45 1023 30.21 852 25.16 24.6 76.3 26 3.9 39.1
14:50 1023 30.21 852 25.16 25.3 77.5 24 3.3 37.9
14:55 1023 30.21 852 25.16 24.3 75.8 25 3.1 37.6
15:00 1023 30.21 852 25.16 23.3 74 27 3.3 37.9
15:05 1023 30.21 852 25.16 23.6 74.5 25 2.7 36.9
15:10 1023 30.21 852 25.16 23.8 74.9 25 3 37.4
15:15 1023 30.21 852 25.16 24.4 75.9 23 2.2 36
15:20 1023 30.21 852 25.16 24.7 76.5 24 2.8 37.1
15:25 1023 30.21 852 25.16 25.4 77.6 24 3.4 38.1
15:30 1023 30.21 852 25.16 25.5 78 24 3.5 38.2
15:35 1023 30.21 852 25.16 25.8 78.4 23 3.3 37.9
15:40 1023 30.21 852 25.16 26.1 78.9 22 2.7 36.8
15:45 1023 30.21 852 25.16 26 78.8 22 2.6 36.7
15:50 1023 30.21 852 25.16 26.2 79.2 21 2.7 36.9
15:55 1023 30.21 852 25.16 26.5 79.8 19 1.6 34.9
16:00 1023 30.21 852 25.16 25.6 78.2 21 1.7 35.1
16:05 1023 30.21 852 25.16 24.8 76.6 23 2.2 36
16:10 1023 30.21 852 25.16 24.8 76.6 22 1.6 34.9
16:15 1023 30.21 852 25.16 25.1 77.3 21 1.7 35.1
16:20 1023 30.21 852 25.16 25.6 78 20 1.5 34.7
16:25 1023 30.21 852 25.16 25.5 77.9 21 2.1 35.8
16:30 1023 30.21 852 25.16 25.7 78.3 19 0.8 33.4
16:35 1023 30.21 852 25.16 26 78.9 21 2 35.5
16:40 1023 30.21 852 25.16 25.6 78 20 1.4 34.4
16:45 1023 30.21 852 25.16 25.3 77.5 21 1.5 34.8
16:50 1023 30.21 852 25.16 25.1 77.3 20 1.2 34.1
16:55 1023 30.21 852 25.16 25.4 77.6 20 1.2 34.1
17:00 1023 30.21 852 25.16 25.5 77.9 20 1.2 34.2
17:05 1022 30.18 852 25.16 25.6 78.1 20 0.9 33.7
17:10 1022 30.18 852 25.16 25.7 78.2 19 0.6 33.1
17:15 1022 30.18 852 25.16 25.5 77.9 21 1.6 34.9
17:20 1023 30.21 852 25.16 25.4 77.7 21 1.8 35.3
17:25 1023 30.21 852 25.16 25.3 77.5 20 0.9 33.6
17:30 1023 30.21 852 25.16 25.1 77.2 21 1.2 34.2
17:35 1023 30.21 852 25.16 25 77 20 0.6 33.1
17:40 1023 30.21 852 25.16 25.1 77.1 21 1.6 34.9
17:45 1023 30.21 852 25.16 24.9 76.8 22 2 35.6
17:50 1023 30.21 852 25.16 24.8 76.6 22 2.2 35.9
17:55 1023 30.21 852 25.16 24.6 76.2 25 3.3 37.9
18:00 1023 30.21 852 25.16 23.5 74.3 28 3.9 39.1
18:05 1023 30.21 852 25.16 22.7 72.9 28 3.5 38.4
18:10 1023 30.21 852 25.16 22.3 72.2 28 3.2 37.7
18:15 1023 30.21 852 25.16 22 71.6 29 3.1 37.6
18:20 1023 30.21 852 25.16 21.7 71 30 3.5 38.3
18:25 1023 30.21 852 25.16 21.3 70.4 31 3.6 38.5
18:30 1023 30.21 852 25.16 21 69.7 31 3.6 38.4
18:35 1023 30.21 852 25.16 20.7 69.2 32 3.5 38.3
18:40 1023 30.21 852 25.16 20.4 68.7 32 3.5 38.3
18:45 1023 30.21 852 25.16 20.3 68.5 33 3.5 38.2
18:50 1023 30.21 852 25.16 20.1 68.1 32 3.1 37.6
18:55 1023 30.21 852 25.16 20 68 32 3 37.3
19:00 1023 30.21 852 25.16 19.9 67.8 32 2.9 37.2
19:05 1023 30.21 852 25.16 19.8 67.6 32 2.9 37.2
19:10 1023 30.21 852 25.16 19.5 67.1 33 3.1 37.5
19:15 1023 30.21 852 25.16 19.2 66.5 33 2.8 37.1
19:20 1023 30.21 852 25.16 19 66.1 34 2.9 37.1
19:25 1023 30.21 852 25.16 18.8 65.8 34 2.7 36.9
19:30 1023 30.21 852 25.16 18.8 65.9 33 2.5 36.4
19:35 1023 30.21 852 25.16 18.9 66 33 2.5 36.6
19:40 1023 30.21 852 25.16 18.8 65.9 33 2.4 36.4
19:45 1023 30.21 852 25.16 18.7 65.7 33 2.4 36.4
19:50 1023 30.21 852 25.16 18.7 65.6 33 2.3 36.2
19:55 1023 30.21 852 25.16 18.7 65.6 33 2.3 36.2
20:00 1023 30.21 852 25.16 18.6 65.5 33 2.3 36.2
20:05 1023 30.21 852 25.16 18.6 65.5 33 2.3 36.2
20:10 1023 30.21 852 25.16 18.5 65.4 33 2.2 36
20:15 1023 30.21 853 25.19 18.5 65.4 33 2.3 36.1
20:20 1023 30.21 853 25.19 18.4 65.2 34 2.2 36
20:25 1024 30.24 853 25.19 18.4 65.2 34 2.3 36.1
20:30 1024 30.24 853 25.19 18.4 65.1 34 2.2 36
20:35 1024 30.24 853 25.19 18.4 65.1 34 2.2 36
20:40 1024 30.24 853 25.19 18.3 65 34 2.2 36
20:45 1024 30.24 853 25.19 18.3 64.9 34 2.2 36
20:50 1024 30.24 853 25.19 18.2 64.7 34 2.3 36.1
20:55 1024 30.24 853 25.19 18.2 64.7 34 2.2 35.9
21:00 1024 30.24 853 25.19 18.1 64.6 34 2.1 35.8
21:05 1024 30.24 853 25.19 18.1 64.6 34 2.3 36.2
21:10 1024 30.24 853 25.19 18.1 64.5 34 2.1 35.8
21:15 1024 30.24 853 25.19 18.1 64.5 34 2.2 35.9
21:20 1024 30.24 853 25.19 18 64.3 35 2.4 36.3
21:25 1024 30.24 853 25.19 17.8 64 36 2.5 36.5
21:30 1024 30.24 853 25.19 17.7 63.8 36 2.4 36.4
21:35 1024 30.24 853 25.19 17.6 63.7 36 2.6 36.7
21:40 1024 30.24 853 25.19 17.5 63.5 37 2.6 36.6
21:45 1024 30.24 853 25.19 17.5 63.4 37 2.6 36.7
21:50 1024 30.24 853 25.19 17.5 63.4 37 2.7 36.9
21:55 1024 30.24 853 25.19 17.4 63.2 37 2.8 37.1
22:00 1024 30.24 853 25.19 17.2 63 38 2.8 37.1
22:05 1024 30.24 853 25.19 17 62.6 39 2.9 37.3
22:10 1024 30.24 853 25.19 16.8 62.2 39 2.9 37.2
22:15 1024 30.24 853 25.19 16.7 62.1 39 2.9 37.3
22:20 1024 30.24 853 25.19 16.8 62.2 39 2.9 37.2
22:25 1024 30.24 853 25.19 16.7 62.1 39 2.8 37.1
22:30 1024 30.24 853 25.19 16.7 62.1 39 2.9 37.2
22:35 1024 30.24 853 25.19 16.7 62 40 3 37.5
22:40 1024 30.24 853 25.19 16.5 61.7 41 3.2 37.8
22:45 1024 30.24 853 25.19 16.3 61.4 42 3.5 38.3
22:50 1024 30.24 853 25.19 15.7 60.3 44 3.5 38.3
22:55 1024 30.24 853 25.19 16 60.8 42 3.2 37.8
23:00 1024 30.24 853 25.19 16.4 61.4 42 3.4 38.1
23:05 1024 30.24 854 25.22 16.5 61.8 41 3.3 37.9
23:10 1025 30.27 854 25.22 16.7 62 41 3.4 38.1
23:15 1026 30.3 855 25.25 16.3 61.4 43 3.7 38.7
23:20 1025 30.27 854 25.22 15.4 59.7 44 3.2 37.7
23:25 1025 30.27 855 25.25 15.6 60.1 44 3.4 38.2
23:30 1026 30.3 855 25.25 15.8 60.4 43 3.3 37.9
23:35 1026 30.3 855 25.25 15.8 60.5 43 3.3 38
23:40 1026 30.3 855 25.25 15.8 60.5 44 3.5 38.4
23:45 1025 30.27 855 25.25 15.5 59.9 45 3.8 38.8
23:50 1026 30.3 855 25.25 15.5 60 44 3.4 38.1
23:55 1026 30.3 855 25.25 15.6 60.1 44 3.5 38.3
24:00 1025 30.27 855 25.25 15.4 59.7 44 3.4 38.1